Time;durP1;ratioP1;P1;durP2;ratioP2;P2;SDS_P1;SDS_P2;PMS_P1;PMS_P2;Temp;Humidity;BMP_temperature;BMP_pressure;BME280_temperature;BME280_humidity;BME280_pressure;Samples;Min_cycle;Max_cycle;Signal;HPM_P1;HPM_P2
2022/05/11 00:01:19;;;;;;;1.60;1.60;;;;;;;15.36;100.00;101413.94;2618465;54;20137;-65
2022/05/11 00:03:49;;;;;;;3.47;1.37;;;;;;;15.74;100.00;101414.75;2618265;54;20150;-65
2022/05/11 00:06:19;;;;;;;1.30;1.30;;;;;;;15.17;100.00;101411.72;2618264;54;20146;-66
2022/05/11 00:08:50;;;;;;;0.37;0.37;;;;;;;15.49;100.00;101412.13;2617765;54;20174;-66
2022/05/11 00:11:20;;;;;;;0.00;0.00;;;;;;;15.49;100.00;101421.78;2617639;54;20145;-65
2022/05/11 00:13:53;;;;;;;1.00;1.00;;;;;;;15.39;100.00;101418.94;2617854;54;20654;-65
2022/05/11 00:16:23;;;;;;;6.70;0.73;;;;;;;15.76;100.00;101409.41;2618251;54;20674;-66
2022/05/11 00:18:53;;;;;;;0.10;0.10;;;;;;;15.83;100.00;101408.03;2618255;54;20147;-65
2022/05/11 00:21:24;;;;;;;0.10;0.10;;;;;;;15.60;100.00;101399.19;2618423;54;20142;-66
2022/05/11 00:23:55;;;;;;;1.23;1.23;;;;;;;15.56;100.00;101412.59;2618370;54;20152;-65
2022/05/11 00:26:26;;;;;;;0.30;0.30;;;;;;;15.24;100.00;101413.00;2618255;54;20138;-65
2022/05/11 00:28:59;;;;;;;0.47;0.47;;;;;;;15.14;100.00;101414.53;2618133;54;20157;-65
2022/05/11 00:31:29;;;;;;;2.70;1.70;;;;;;;14.61;100.00;101410.28;2617061;39;20616;-65
2022/05/11 00:33:59;;;;;;;0.57;0.57;;;;;;;15.11;100.00;101417.38;2617971;54;20141;-65
2022/05/11 00:36:29;;;;;;;0.00;0.00;;;;;;;14.86;100.00;101402.50;2617564;54;20134;-65
2022/05/11 00:39:00;;;;;;;0.17;0.17;;;;;;;15.28;100.00;101411.84;2617764;54;20141;-65
2022/05/11 00:41:30;;;;;;;1.50;1.27;;;;;;;14.89;100.00;101401.44;2618059;39;20524;-65
2022/05/11 00:44:06;;;;;;;1.33;1.03;;;;;;;14.68;100.00;101397.66;2617624;54;20152;-65
2022/05/11 00:46:42;;;;;;;0.53;0.53;;;;;;;14.20;100.00;101392.06;2618025;54;20148;-65
2022/05/11 00:52:04;;;;;;;10.23;2.30;;;;;;;14.06;100.00;101394.69;2617936;54;20153;-65
2022/05/11 00:54:39;;;;;;;0.67;0.40;;;;;;;14.33;100.00;101392.09;2617957;39;20566;-65
2022/05/11 00:57:14;;;;;;;0.30;0.30;;;;;;;14.00;100.00;101390.69;2617623;54;20137;-65
2022/05/11 00:59:51;;;;;;;0.40;0.40;;;;;;;14.00;100.00;101388.09;2618005;39;20571;-65
2022/05/11 01:02:25;;;;;;;0.27;0.27;;;;;;;13.77;100.00;101390.47;2617695;47;20650;-65
2022/05/11 01:05:01;;;;;;;0.73;0.73;;;;;;;14.00;100.00;101387.28;2618190;54;20161;-65
2022/05/11 01:07:32;;;;;;;0.57;0.57;;;;;;;13.84;100.00;101389.16;2618632;54;20137;-65
2022/05/11 01:10:02;;;;;;;1.90;1.23;;;;;;;13.76;100.00;101388.81;2618580;54;20145;-65
2022/05/11 01:12:38;;;;;;;1.67;1.57;;;;;;;13.30;100.00;101381.19;2618461;54;20149;-65
2022/05/11 01:15:14;;;;;;;0.67;0.67;;;;;;;12.45;100.00;101381.00;2618641;54;20145;-65
2022/05/11 01:17:44;;;;;;;0.83;0.83;;;;;;;12.56;100.00;101382.97;2618633;54;20165;-65
2022/05/11 01:20:18;;;;;;;0.30;0.30;;;;;;;13.18;100.00;101374.13;2618653;47;20140;-65
2022/05/11 01:22:55;;;;;;;1.60;1.37;;;;;;;13.23;100.00;101369.47;2619018;39;20536;-65
2022/05/11 01:25:28;;;;;;;1.47;0.37;;;;;;;12.75;100.00;101369.75;2619220;39;20533;-65
2022/05/11 01:28:04;;;;;;;1.80;0.30;;;;;;;13.06;100.00;101382.63;2618734;54;20141;-65
2022/05/11 01:30:35;;;;;;;0.20;0.20;;;;;;;13.28;100.00;101375.22;2619982;47;20142;-65
2022/05/11 01:33:05;;;;;;;0.50;0.50;;;;;;;13.17;100.00;101376.78;2619146;54;20654;-65
2022/05/11 01:35:50;;;;;;;1.50;0.63;;;;;;;13.11;100.00;101385.84;2618697;54;20137;-65
2022/05/11 01:38:40;;;;;;;0.43;0.43;;;;;;;13.73;100.00;101368.94;2618535;54;20134;-65
2022/05/11 01:41:18;;;;;;;1.43;1.33;;;;;;;13.02;100.00;101368.94;2618323;54;20145;-66
2022/05/11 01:43:48;;;;;;;1.40;0.97;;;;;;;13.44;100.00;101375.97;2618802;39;20552;-66
2022/05/11 01:46:18;;;;;;;0.67;0.67;;;;;;;13.25;100.00;101370.19;2618252;54;20140;-66
2022/05/11 01:48:49;;;;;;;2.00;1.83;;;;;;;13.29;100.00;101378.66;2618588;46;20149;-65
2022/05/11 01:51:21;;;;;;;0.83;0.83;;;;;;;13.04;100.00;101380.09;2618202;54;20146;-65
2022/05/11 01:53:52;;;;;;;1.30;1.07;;;;;;;12.89;100.00;101390.59;2618543;54;20136;-65
2022/05/11 01:56:27;;;;;;;2.77;1.07;;;;;;;12.40;100.00;101383.00;2618822;54;20146;-65
2022/05/11 01:58:58;;;;;;;0.60;0.60;;;;;;;12.45;100.00;101378.38;2618912;54;20189;-64
2022/05/11 02:01:30;;;;;;;0.30;0.30;;;;;;;12.66;100.00;101387.56;2619152;54;20160;-65
2022/05/11 02:04:01;;;;;;;1.00;0.90;;;;;;;12.62;100.00;101386.06;2618934;54;20666;-65
2022/05/11 02:09:14;;;;;;;0.70;0.70;;;;;;;13.16;100.00;101375.97;2618653;54;20138;-65
2022/05/11 02:11:47;;;;;;;0.20;0.20;;;;;;;12.92;100.00;101373.00;2618784;54;20134;-66
2022/05/11 02:14:17;;;;;;;1.80;0.87;;;;;;;13.19;100.00;101369.75;2618322;54;20169;-65
2022/05/11 02:16:47;;;;;;;0.27;0.27;;;;;;;13.22;100.00;101367.78;2618519;54;20142;-65
2022/05/11 02:19:17;;;;;;;1.23;0.73;;;;;;;12.23;100.00;101361.47;2618911;39;20588;-64
2022/05/11 02:21:47;;;;;;;0.63;0.63;;;;;;;11.38;100.00;101366.97;2618617;54;20153;-65
2022/05/11 02:24:18;;;;;;;1.40;1.07;;;;;;;11.14;100.00;101369.09;2619081;48;20147;-65
2022/05/11 02:26:51;;;;;;;1.63;1.40;;;;;;;10.32;100.00;101364.56;2618966;54;20142;-64
2022/05/11 02:29:21;;;;;;;2.17;1.00;;;;;;;10.27;100.00;101375.16;2619358;53;20150;-65
2022/05/11 02:31:52;;;;;;;0.33;0.33;;;;;;;10.30;100.00;101374.22;2619153;47;20149;-65
2022/05/11 02:37:05;;;;;;;2.33;0.57;;;;;;;11.07;100.00;101378.09;2618785;54;20674;-65
2022/05/11 02:39:35;;;;;;;0.50;0.50;;;;;;;11.01;100.00;101364.59;2618939;54;20142;-64
2022/05/11 02:42:08;;;;;;;0.70;0.53;;;;;;;11.08;100.00;101359.00;2619033;47;20146;-65
2022/05/11 02:44:38;;;;;;;3.00;1.33;;;;;;;11.52;100.00;101366.22;2618817;54;20274;-66
2022/05/11 02:47:09;;;;;;;0.67;0.67;;;;;;;11.51;100.00;101365.41;2618588;47;20172;-64
2022/05/11 02:49:39;;;;;;;0.47;0.47;;;;;;;11.97;100.00;101368.13;2618593;54;20142;-65
2022/05/11 02:52:10;;;;;;;0.43;0.43;;;;;;;12.58;100.00;101357.69;2618082;54;20152;-65
2022/05/11 02:54:40;;;;;;;0.63;0.63;;;;;;;11.73;100.00;101365.09;2619150;39;20525;-65
2022/05/11 02:57:13;;;;;;;0.10;0.10;;;;;;;12.42;100.00;101369.91;2618716;54;20161;-65
2022/05/11 02:59:44;;;;;;;0.10;0.10;;;;;;;12.27;100.00;101363.81;2619066;39;20611;-63
2022/05/11 03:02:14;;;;;;;1.03;0.33;;;;;;;12.42;100.00;101362.94;2618927;39;20554;-65
2022/05/11 03:04:44;;;;;;;0.77;0.77;;;;;;;12.25;100.00;101367.41;2618370;54;20165;-66
2022/05/11 03:07:15;;;;;;;1.20;1.07;;;;;;;12.47;100.00;101363.53;2617639;54;20141;-65
2022/05/11 03:09:45;;;;;;;0.10;0.10;;;;;;;13.34;100.00;101366.19;2617908;54;20681;-66
2022/05/11 03:12:18;;;;;;;0.10;0.10;;;;;;;13.57;100.00;101365.63;2617759;54;20141;-65
2022/05/11 03:14:48;;;;;;;0.13;0.13;;;;;;;12.85;100.00;101370.88;2617970;54;20141;-65
2022/05/11 03:17:19;;;;;;;2.83;0.40;;;;;;;12.83;100.00;101365.78;2618189;39;20679;-65
2022/05/11 03:19:50;;;;;;;0.50;0.50;;;;;;;13.13;100.00;101377.00;2618020;54;20156;-65
2022/05/11 03:22:20;;;;;;;0.30;0.30;;;;;;;13.71;100.00;101370.84;2617769;54;20138;-65
2022/05/11 03:24:50;;;;;;;1.10;1.10;;;;;;;13.29;100.00;101371.69;2619298;39;20520;-65
2022/05/11 03:27:23;;;;;;;0.67;0.67;;;;;;;11.99;100.00;101387.09;2618554;47;20142;-65
2022/05/11 03:29:54;;;;;;;0.30;0.30;;;;;;;12.08;100.00;101381.38;2618169;54;20154;-65
2022/05/11 03:35:10;;;;;;;0.20;0.20;;;;;;;14.15;100.00;101383.69;2618257;46;20145;-65
2022/05/11 03:37:41;;;;;;;0.53;0.53;;;;;;;13.87;100.00;101378.53;2616951;47;20159;-65
2022/05/11 03:40:12;;;;;;;2.40;0.83;;;;;;;13.02;100.00;101378.53;2617151;47;20697;-66
2022/05/11 03:42:45;;;;;;;0.80;0.50;;;;;;;13.05;100.00;101380.94;2616910;54;20149;-66
2022/05/11 03:45:18;;;;;;;0.37;0.37;;;;;;;12.75;100.00;101380.16;2617342;47;20153;-66
2022/05/11 03:47:49;;;;;;;0.40;0.40;;;;;;;12.60;100.00;101390.50;2617376;46;20142;-66
2022/05/11 03:50:22;;;;;;;1.57;1.47;;;;;;;13.29;100.00;101392.53;2617711;54;20145;-66
2022/05/11 03:52:53;;;;;;;1.80;1.13;;;;;;;13.19;100.00;101388.81;2618943;54;20174;-65
2022/05/11 03:55:26;;;;;;;3.17;1.33;;;;;;;13.30;100.00;101382.97;2618616;54;20149;-65
2022/05/11 03:57:58;;;;;;;0.40;0.40;;;;;;;13.12;100.00;101393.53;2618071;54;20130;-65
2022/05/11 04:00:29;;;;;;;0.50;0.50;;;;;;;13.48;100.00;101398.31;2617928;54;20199;-65
2022/05/11 04:02:59;;;;;;;0.43;0.43;;;;;;;13.24;100.00;101396.38;2618330;54;20662;-65
2022/05/11 04:05:31;;;;;;;0.77;0.63;;;;;;;13.02;100.00;101401.97;2618331;47;20149;-65
2022/05/11 04:08:01;;;;;;;3.27;3.00;;;;;;;13.48;100.00;101400.91;2618032;54;20141;-65
2022/05/11 04:10:31;;;;;;;0.20;0.20;;;;;;;13.42;100.00;101400.47;2617882;46;20134;-66
2022/05/11 04:13:06;;;;;;;1.53;1.10;;;;;;;13.63;100.00;101406.97;2618036;54;20138;-66
2022/05/11 04:15:36;;;;;;;0.20;0.20;;;;;;;13.36;100.00;101396.44;2618245;54;20141;-65
2022/05/11 04:18:07;;;;;;;0.73;0.63;;;;;;;13.26;100.00;101397.09;2618162;54;20149;-65
2022/05/11 04:20:38;;;;;;;8.30;3.90;;;;;;;13.56;100.00;101400.47;2617965;54;20240;-65
2022/05/11 04:23:08;;;;;;;1.53;0.73;;;;;;;13.94;100.00;101391.09;2618104;54;20134;-65
2022/05/11 04:25:38;;;;;;;0.70;0.70;;;;;;;14.19;100.00;101395.59;2618180;54;20670;-65
2022/05/11 04:28:14;;;;;;;0.00;0.00;;;;;;;15.21;100.00;101397.50;2617892;47;20149;-65
2022/05/11 04:30:45;;;;;;;1.70;1.23;;;;;;;15.07;100.00;101400.22;2618127;54;20221;-65
2022/05/11 04:33:15;;;;;;;4.90;1.93;;;;;;;14.97;100.00;101397.38;2618131;47;20142;-65
2022/05/11 04:35:45;;;;;;;0.43;0.43;;;;;;;15.64;100.00;101405.88;2618292;54;20142;-65
2022/05/11 04:38:15;;;;;;;0.30;0.30;;;;;;;15.40;100.00;101415.41;2617741;54;20181;-65
2022/05/11 04:40:46;;;;;;;0.30;0.30;;;;;;;15.09;100.00;101410.56;2618270;54;20141;-65
2022/05/11 04:43:19;;;;;;;0.00;0.00;;;;;;;15.32;100.00;101415.94;2618098;54;20141;-66
2022/05/11 04:45:49;;;;;;;0.28;0.25;;;;;;;15.34;100.00;101413.19;2616893;47;20133;-65
2022/05/11 04:48:20;;;;;;;1.00;0.73;;;;;;;15.40;100.00;101413.63;2617870;54;20134;-65
2022/05/11 04:50:51;;;;;;;0.17;0.17;;;;;;;14.73;100.00;101406.00;2617995;54;20142;-65
2022/05/11 04:53:22;;;;;;;0.60;0.60;;;;;;;15.61;100.00;101415.69;2636655;36;20225;-65
2022/05/11 04:55:52;;;;;;;2.53;0.88;;;;;;;16.05;100.00;101421.25;2617723;54;20157;-64
2022/05/11 04:58:25;;;;;;;0.00;0.00;;;;;;;16.06;100.00;101422.94;2617957;54;20134;-66
2022/05/11 05:00:55;;;;;;;0.20;0.17;;;;;;;15.71;100.00;101420.19;2618328;54;20172;-65
2022/05/11 05:03:26;;;;;;;0.90;0.90;;;;;;;15.68;100.00;101427.44;2617811;39;20542;-66
2022/05/11 05:05:56;;;;;;;0.10;0.10;;;;;;;15.68;100.00;101414.34;2617140;47;20134;-66
2022/05/11 05:08:26;;;;;;;1.27;1.17;;;;;;;15.53;100.00;101424.09;2617804;54;20134;-65
2022/05/11 05:10:57;;;;;;;3.03;1.67;;;;;;;14.65;100.00;101429.19;2616512;54;20697;-65
2022/05/11 05:13:29;;;;;;;8.55;5.90;;;;;;;14.69;100.00;101430.66;2615675;47;20140;-65
2022/05/11 05:16:00;;;;;;;1.17;1.17;;;;;;;14.02;100.00;101430.59;2616470;54;20134;-64
2022/05/11 05:18:32;;;;;;;2.47;0.87;;;;;;;14.02;100.00;101440.19;2618383;54;20192;-65
2022/05/11 05:21:02;;;;;;;0.40;0.40;;;;;;;14.20;100.00;101436.44;2619371;54;20140;-66
2022/05/11 05:23:34;;;;;;;2.73;1.17;;;;;;;14.70;100.00;101435.81;2618087;54;20133;-65
2022/05/11 05:26:04;;;;;;;2.75;2.50;;;;;;;15.02;100.00;101438.91;2617601;54;20146;-64
2022/05/11 05:31:22;;;;;;;1.07;1.07;;;;;;;15.64;100.00;101439.91;2617414;54;20156;-65
2022/05/11 05:33:58;;;;;;;0.15;0.15;;;;;;;16.38;100.00;101436.34;2618453;39;20522;-65
2022/05/11 05:36:29;;;;;;;0.30;0.30;;;;;;;16.49;100.00;101443.44;2617726;54;20138;-65
2022/05/11 05:39:00;;;;;;;0.52;0.52;;;;;;;16.44;100.00;101442.91;2617600;54;20141;-65
2022/05/11 05:41:31;;;;;;;0.00;0.00;;;;;;;16.45;100.00;101440.16;2617527;54;20696;-64
2022/05/11 05:44:06;;;;;;;0.00;0.00;;;;;;;17.05;100.00;101442.69;2617743;54;20134;-65
2022/05/11 05:46:38;;;;;;;0.22;0.22;;;;;;;16.59;100.00;101447.06;2617810;47;20137;-65
2022/05/11 05:49:08;;;;;;;0.90;0.90;;;;;;;16.64;100.00;101444.94;2617700;54;20708;-64
2022/05/11 05:51:40;;;;;;;1.58;0.47;;;;;;;16.64;100.00;101456.28;2618532;54;20138;-64
2022/05/11 05:54:10;;;;;;;1.90;0.88;;;;;;;15.82;100.00;101462.16;2618444;54;20681;-64
2022/05/11 05:56:40;;;;;;;0.10;0.10;;;;;;;16.16;100.00;101462.41;2618831;54;20661;-64
2022/05/11 05:59:14;;;;;;;0.10;0.10;;;;;;;16.65;100.00;101457.91;2619804;54;20189;-64
2022/05/11 06:01:44;;;;;;;1.67;0.22;;;;;;;16.91;100.00;101456.00;2618755;54;20140;-64
2022/05/11 06:04:14;;;;;;;0.08;0.08;;;;;;;16.86;100.00;101445.03;2618983;39;20613;-64
2022/05/11 06:06:45;;;;;;;0.00;0.00;;;;;;;17.57;100.00;101450.06;2618687;54;20160;-64
2022/05/11 06:09:15;;;;;;;0.00;0.00;;;;;;;17.90;100.00;101459.72;2618642;54;20134;-64
2022/05/11 06:11:45;;;;;;;0.75;0.75;;;;;;;17.95;100.00;101452.34;2618469;54;20134;-64
2022/05/11 06:14:18;;;;;;;0.00;0.00;;;;;;;18.33;100.00;101453.72;2618518;54;20148;-63
2022/05/11 06:16:49;;;;;;;0.10;0.10;;;;;;;18.56;100.00;101457.97;2618360;54;20148;-63
2022/05/11 06:19:19;;;;;;;0.40;0.40;;;;;;;17.70;92.72;101468.34;2618592;54;20134;-64
2022/05/11 06:21:50;;;;;;;0.10;0.10;;;;;;;18.02;100.00;101466.66;2618450;54;20141;-64
2022/05/11 06:24:20;;;;;;;0.22;0.22;;;;;;;18.55;100.00;101466.81;2618227;54;20149;-64
2022/05/11 06:26:50;;;;;;;0.35;0.35;;;;;;;18.40;100.00;101457.50;2618401;54;20153;-64
2022/05/11 06:29:39;;;;;;;0.15;0.15;;;;;;;18.58;100.00;101458.66;2618236;54;20144;-65
2022/05/11 06:32:10;;;;;;;0.75;0.20;;;;;;;18.68;93.82;101462.22;2618467;50;20150;-65
2022/05/11 06:34:40;;;;;;;3.42;3.30;;;;;;;19.07;100.00;101453.66;2618478;54;20148;-63
2022/05/11 06:37:11;;;;;;;1.00;0.25;;;;;;;18.58;94.53;101462.13;2618728;54;20134;-64
2022/05/11 06:39:41;;;;;;;0.30;0.30;;;;;;;18.14;96.30;101463.03;2618064;54;20138;-64
2022/05/11 06:42:12;;;;;;;1.27;0.28;;;;;;;18.10;91.25;101466.03;2618326;47;20134;-64
2022/05/11 06:44:45;;;;;;;0.68;0.68;;;;;;;18.14;96.29;101475.34;2618112;54;20149;-63
2022/05/11 06:47:15;;;;;;;0.20;0.13;;;;;;;18.43;87.52;101467.75;2618209;54;20146;-63
2022/05/11 06:49:46;;;;;;;0.22;0.22;;;;;;;19.09;100.00;101464.91;2618160;54;20141;-63
2022/05/11 06:52:17;;;;;;;0.95;0.93;;;;;;;18.69;84.04;101475.25;2618379;54;20670;-64
2022/05/11 07:00:17;;;;;;;0.45;0.45;;;;;;;18.89;94.13;101459.63;2618177;54;20212;-63
2022/05/11 07:02:47;;;;;;;0.63;0.55;;;;;;;19.44;84.16;101469.00;2618310;47;20202;-64
2022/05/11 07:05:18;;;;;;;12.50;6.35;;;;;;;18.51;78.83;101470.59;2617884;54;20133;-64
2022/05/11 07:07:48;;;;;;;9.27;7.45;;;;;;;17.43;87.51;101479.13;2618008;54;20138;-64
2022/05/11 07:10:18;;;;;;;1.23;1.15;;;;;;;17.47;100.00;101479.72;2618650;39;20531;-64
2022/05/11 07:12:49;;;;;;;1.33;1.23;;;;;;;18.42;89.51;101471.34;2617992;49;20145;-64
2022/05/11 07:15:25;;;;;;;4.50;3.25;;;;;;;18.78;90.63;101463.13;2618729;54;20141;-64
2022/05/11 07:17:56;;;;;;;0.00;0.00;;;;;;;19.76;93.10;101466.25;2620042;54;20237;-63
2022/05/11 07:20:30;;;;;;;0.90;0.40;;;;;;;19.88;78.53;101476.56;2618491;54;20153;-63
2022/05/11 07:23:00;;;;;;;0.00;0.00;;;;;;;20.13;82.72;101467.34;2618633;54;20142;-64
2022/05/11 07:25:31;;;;;;;0.00;0.00;;;;;;;20.20;83.09;101465.00;2618472;54;20138;-63
2022/05/11 07:28:03;;;;;;;0.00;0.00;;;;;;;20.32;85.15;101474.50;2618881;54;20673;-63
2022/05/11 07:30:39;;;;;;;0.00;0.00;;;;;;;20.61;78.95;101472.72;2618440;47;20133;-64
2022/05/11 07:33:10;;;;;;;0.35;0.35;;;;;;;20.69;71.18;101475.50;2619764;54;20148;-63
2022/05/11 07:35:41;;;;;;;3.00;1.75;;;;;;;20.16;66.14;101469.72;2618181;54;20149;-63
2022/05/11 07:38:13;;;;;;;1.08;1.08;;;;;;;20.04;74.36;101463.72;2618289;54;20142;-63
2022/05/11 07:40:44;;;;;;;1.70;1.65;;;;;;;20.12;76.70;101468.31;2618321;54;20141;-63
2022/05/11 07:43:15;;;;;;;0.88;0.88;;;;;;;20.16;73.79;101463.59;2617667;54;20144;-64
2022/05/11 07:45:48;;;;;;;0.10;0.10;;;;;;;20.03;72.45;101455.94;2617604;54;20168;-63
2022/05/11 07:48:21;;;;;;;0.85;0.85;;;;;;;20.06;79.42;101447.75;2618130;54;20140;-63
2022/05/11 07:50:52;;;;;;;0.20;0.20;;;;;;;20.10;78.94;101444.72;2618105;54;20134;-63
2022/05/11 07:53:22;;;;;;;1.45;0.52;;;;;;;19.29;68.06;101447.44;2618524;39;20562;-63
2022/05/11 07:59:52;;;;;;;1.50;0.60;;;;;;;17.96;76.93;101464.53;2618365;54;20142;-63
2022/05/11 08:01:28;;;;;;;0.57;0.50;;;;;;;17.58;86.33;101464.03;2617797;54;20133;-63
2022/05/11 08:03:58;;;;;;;0.00;0.00;;;;;;;18.15;96.35;101464.72;2618069;54;20134;-64
2022/05/11 08:06:28;;;;;;;3.30;2.83;;;;;;;18.86;86.42;101458.06;2618039;54;20492;-64
2022/05/11 08:08:58;;;;;;;5.28;2.17;;;;;;;19.03;77.14;101452.25;2618175;54;20161;-64
2022/05/11 08:11:30;;;;;;;0.65;0.65;;;;;;;19.48;81.21;101452.00;2618151;54;20148;-64
2022/05/11 08:14:00;;;;;;;2.97;2.65;;;;;;;19.20;74.93;101440.31;2617955;54;20693;-64
2022/05/11 08:16:33;;;;;;;4.82;2.40;;;;;;;18.57;76.82;101449.13;2617978;54;20141;-64
2022/05/11 08:19:03;;;;;;;0.00;0.00;;;;;;;18.94;89.94;101447.75;2617911;54;20151;-65
2022/05/11 08:21:33;;;;;;;1.30;0.22;;;;;;;19.53;84.44;101449.81;2618032;54;20145;-63
2022/05/11 08:24:04;;;;;;;0.00;0.00;;;;;;;19.94;84.96;101448.88;2617951;54;20141;-64
2022/05/11 08:26:34;;;;;;;6.22;1.92;;;;;;;20.15;67.09;101448.75;2617734;54;20142;-64
2022/05/11 08:29:04;;;;;;;0.70;0.40;;;;;;;20.42;64.67;101454.25;2618454;54;20148;-63
2022/05/11 08:34:20;;;;;;;2.47;0.75;;;;;;;21.32;69.36;101444.19;2617954;54;20168;-64
2022/05/11 08:36:50;;;;;;;0.00;0.00;;;;;;;21.39;57.35;101446.13;2617577;54;20157;-63
2022/05/11 08:39:20;;;;;;;0.00;0.00;;;;;;;21.59;56.79;101452.16;2617293;54;20141;-64
2022/05/11 08:41:53;;;;;;;11.70;3.92;;;;;;;21.98;60.99;101446.75;2618063;39;20564;-64
2022/05/11 08:44:29;;;;;;;1.13;0.65;;;;;;;21.18;54.05;101447.31;2617667;54;20138;-64
2022/05/11 08:47:09;;;;;;;4.80;1.40;;;;;;;21.20;54.68;101451.47;2617608;54;20141;-64
2022/05/11 08:49:50;;;;;;;0.70;0.63;;;;;;;21.11;55.88;101446.16;2617642;54;20196;-63
2022/05/11 08:52:36;;;;;;;4.30;3.90;;;;;;;21.90;53.20;101448.28;2617724;54;20146;-64
2022/05/11 08:55:12;;;;;;;0.00;0.00;;;;;;;22.02;52.03;101446.31;2617363;51;20134;-64
2022/05/11 08:57:44;;;;;;;0.55;0.30;;;;;;;22.32;50.56;101443.31;2617751;54;20666;-64
2022/05/11 09:00:18;;;;;;;0.00;0.00;;;;;;;22.62;53.12;101443.94;2617789;54;20772;-63
2022/05/11 09:02:55;;;;;;;2.95;0.77;;;;;;;22.77;49.39;101435.34;2617645;47;20171;-65
2022/05/11 09:05:28;;;;;;;0.30;0.30;;;;;;;23.08;51.56;101437.53;2617911;54;20673;-65
2022/05/11 09:08:00;;;;;;;0.40;0.40;;;;;;;23.08;52.11;101437.53;2618792;54;20157;-66
2022/05/11 09:10:32;;;;;;;0.47;0.47;;;;;;;23.00;50.20;101437.47;2618049;39;20534;-64
2022/05/11 09:13:05;;;;;;;0.00;0.00;;;;;;;23.36;48.35;101433.75;2618482;54;20153;-66
2022/05/11 09:16:00;;;;;;;0.00;0.00;;;;;;;23.85;45.44;101431.34;2619324;54;20141;-65
2022/05/11 09:18:42;;;;;;;0.47;0.20;;;;;;;24.37;44.22;101432.00;2617876;54;20130;-65
2022/05/11 09:21:25;;;;;;;0.00;0.00;;;;;;;24.08;42.93;101437.72;2618100;39;20545;-65
2022/05/11 09:24:10;;;;;;;0.40;0.40;;;;;;;23.62;43.31;101434.59;2618145;54;20149;-66
2022/05/11 09:26:44;;;;;;;0.10;0.10;;;;;;;23.90;43.26;101429.06;2618457;54;20142;-65
2022/05/11 09:29:18;;;;;;;0.00;0.00;;;;;;;24.06;43.59;101426.47;2618474;54;20149;-64
2022/05/11 09:31:51;;;;;;;0.00;0.00;;;;;;;24.52;40.86;101425.91;2618116;54;20233;-64
2022/05/11 09:34:33;;;;;;;0.08;0.08;;;;;;;24.89;40.24;101424.59;2617910;54;20243;-65
2022/05/11 09:37:07;;;;;;;0.25;0.25;;;;;;;24.94;39.09;101419.63;2618307;54;20142;-65
2022/05/11 09:39:37;;;;;;;0.00;0.00;;;;;;;25.41;36.90;101419.66;2618252;54;20137;-65
2022/05/11 09:42:20;;;;;;;0.00;0.00;;;;;;;25.56;37.44;101416.16;2618088;47;20656;-65
2022/05/11 09:44:52;;;;;;;2.28;2.17;;;;;;;25.53;33.59;101413.84;2618403;54;20697;-64
2022/05/11 09:47:30;;;;;;;0.00;0.00;;;;;;;25.67;34.47;101411.47;2618517;54;20674;-65
2022/05/11 09:50:20;;;;;;;0.05;0.05;;;;;;;25.78;34.34;101408.44;2617798;54;20180;-64
2022/05/11 09:52:51;;;;;;;1.02;0.85;;;;;;;25.71;35.87;101402.16;2617745;54;20258;-65
2022/05/11 09:55:26;;;;;;;0.00;0.00;;;;;;;26.11;35.54;101404.59;2618188;47;20133;-66
2022/05/11 09:57:59;;;;;;;0.28;0.28;;;;;;;26.18;34.35;101396.72;2618107;46;20149;-66
2022/05/11 10:00:37;;;;;;;0.20;0.20;;;;;;;26.50;33.13;101383.22;2618112;54;20193;-64
2022/05/11 10:03:13;;;;;;;0.30;0.30;;;;;;;26.06;33.65;101391.81;2618620;47;20282;-64
2022/05/11 10:05:49;;;;;;;0.20;0.17;;;;;;;26.69;31.48;101376.53;2618367;54;20133;-64
2022/05/11 10:08:26;;;;;;;0.10;0.10;;;;;;;26.63;30.78;101393.25;2618089;54;20144;-65
2022/05/11 10:11:02;;;;;;;1.35;0.45;;;;;;;26.62;30.37;101388.94;2617783;47;20681;-66
2022/05/11 10:13:37;;;;;;;1.50;0.63;;;;;;;26.60;30.77;101390.97;2617859;54;20168;-65
2022/05/11 10:22:12;;;;;;;0.73;0.73;;;;;;;27.09;29.12;101389.50;2618017;47;20617;-66
2022/05/11 10:25:00;;;;;;;0.05;0.05;;;;;;;26.56;29.72;101393.13;2617892;54;20141;-64
2022/05/11 10:27:38;;;;;;;0.10;0.10;;;;;;;26.67;28.24;101386.56;2617798;54;20140;-65
2022/05/11 10:30:13;;;;;;;0.65;0.43;;;;;;;26.02;29.76;101400.31;2617746;54;20677;-65
2022/05/11 10:33:08;;;;;;;0.68;0.68;;;;;;;26.44;29.20;101391.94;2617658;54;20141;-66
2022/05/11 10:35:50;;;;;;;0.00;0.00;;;;;;;26.59;28.20;101387.47;2617259;54;20148;-66
2022/05/11 10:38:39;;;;;;;0.70;0.70;;;;;;;26.43;29.67;101388.44;2617469;54;20167;-66
2022/05/11 10:41:19;;;;;;;1.15;1.15;;;;;;;26.61;30.47;101388.09;2617808;47;20149;-65
2022/05/11 13:24:06;;;;;;;3.13;1.80;;;;;;;31.98;27.89;101211.53;2612321;47;20209;-65
2022/05/11 13:26:42;;;;;;;0.82;0.77;;;;;;;31.98;29.30;101224.94;2617598;47;20141;-65
2022/05/11 13:29:20;;;;;;;0.50;0.50;;;;;;;30.91;29.78;101222.28;2617599;54;20213;-66
2022/05/11 13:32:05;;;;;;;1.35;1.33;;;;;;;31.33;29.99;101222.75;2618055;54;20157;-64
2022/05/11 13:34:38;;;;;;;0.57;0.57;;;;;;;31.35;30.27;101215.28;2617483;54;20140;-65
2022/05/11 13:37:26;;;;;;;0.30;0.30;;;;;;;31.96;30.12;101208.25;2617870;39;20584;-65
2022/05/11 13:40:00;;;;;;;0.45;0.45;;;;;;;30.61;29.88;101216.59;2617368;54;20145;-66
2022/05/11 13:42:32;;;;;;;0.57;0.50;;;;;;;30.67;30.69;101209.59;2617210;54;20146;-65
2022/05/11 13:45:08;;;;;;;0.55;0.55;;;;;;;29.91;33.72;101225.34;2617336;54;20160;-65
2022/05/11 13:50:36;;;;;;;2.85;0.98;;;;;;;29.62;32.93;101229.19;2617288;47;20145;-65
2022/05/11 13:53:20;;;;;;;1.55;1.38;;;;;;;27.52;36.98;101225.25;2617415;54;20147;-65
2022/05/11 13:56:09;;;;;;;0.00;0.00;;;;;;;28.77;36.74;101234.22;2617352;47;20142;-65
2022/05/11 13:58:43;;;;;;;0.30;0.30;;;;;;;29.29;34.87;101221.09;2617228;54;20159;-65
2022/05/11 14:01:15;;;;;;;1.23;0.50;;;;;;;29.26;34.24;101237.53;2617336;54;20712;-64
2022/05/11 14:03:50;;;;;;;0.85;0.85;;;;;;;29.20;32.36;101227.66;2617259;54;20150;-67
2022/05/11 14:06:23;;;;;;;1.70;1.60;;;;;;;28.56;32.91;101229.81;2617280;54;20133;-67
2022/05/11 14:08:53;;;;;;;0.57;0.47;;;;;;;29.80;31.36;101223.25;2617876;39;20523;-66
2022/05/11 14:11:27;;;;;;;1.65;1.52;;;;;;;29.73;31.75;101206.38;2617965;47;20164;-65
2022/05/11 14:13:57;;;;;;;1.75;0.30;;;;;;;30.23;29.93;101210.28;2617979;54;20282;-64
2022/05/11 14:16:31;;;;;;;0.85;0.85;;;;;;;28.86;32.57;101217.03;2618146;54;20157;-65
2022/05/11 14:19:01;;;;;;;1.10;0.52;;;;;;;27.79;33.80;101215.66;2617630;54;20142;-65
2022/05/11 14:21:32;;;;;;;0.45;0.45;;;;;;;27.33;34.18;101215.97;2617948;54;20140;-64
2022/05/11 14:24:02;;;;;;;0.15;0.15;;;;;;;28.94;32.53;101216.03;2617899;54;20727;-65
2022/05/11 14:26:35;;;;;;;0.00;0.00;;;;;;;29.90;31.42;101215.66;2618097;54;20146;-65
2022/05/11 14:29:11;;;;;;;1.70;1.60;;;;;;;27.84;34.03;101219.38;2617989;54;20141;-66
2022/05/11 14:31:42;;;;;;;0.00;0.00;;;;;;;26.82;34.52;101222.31;2617922;54;20214;-65
2022/05/11 14:34:16;;;;;;;3.33;2.42;;;;;;;25.80;36.44;101221.13;2617767;54;20721;-66
2022/05/11 14:36:47;;;;;;;5.93;5.45;;;;;;;25.38;35.83;101220.75;2617739;54;20216;-64
2022/05/11 14:39:19;;;;;;;0.55;0.55;;;;;;;25.22;37.97;101218.19;2617801;54;20674;-64
2022/05/11 14:41:52;;;;;;;1.75;1.75;;;;;;;25.05;38.35;101222.75;2617962;54;20144;-64
2022/05/11 14:44:22;;;;;;;0.43;0.43;;;;;;;24.93;38.69;101217.00;2617863;47;20142;-65
2022/05/11 14:47:13;;;;;;;0.03;0.03;;;;;;;25.23;37.56;101218.00;2618005;46;20153;-65
2022/05/11 14:49:44;;;;;;;0.47;0.47;;;;;;;27.37;36.43;101197.75;2617973;54;20149;-65
2022/05/11 14:52:14;;;;;;;1.13;0.38;;;;;;;28.79;33.60;101194.81;2617908;54;20765;-65
2022/05/11 14:54:45;;;;;;;0.15;0.15;;;;;;;29.39;32.79;101190.50;2617625;54;20684;-65
2022/05/11 15:02:45;;;;;;;0.52;0.52;;;;;;;29.03;36.20;101213.00;2617784;54;20142;-65
2022/05/11 15:05:18;;;;;;;0.15;0.15;;;;;;;29.19;35.02;101215.31;2617668;54;20141;-64
2022/05/11 15:07:49;;;;;;;0.30;0.30;;;;;;;29.69;34.64;101215.84;2617923;54;20641;-64